createdAt,value
2018-12-22T00:01:52.581Z,90.15
2018-12-22T00:04:20.914Z,91.05
2018-12-22T00:06:49.415Z,91.18
2018-12-22T00:09:18.012Z,91.25
2018-12-22T00:11:46.266Z,91.96
2018-12-22T00:14:14.618Z,91.63
2018-12-22T00:16:43.571Z,90.64
2018-12-22T00:19:12.016Z,91.37
2018-12-22T00:21:40.925Z,91.68
2018-12-22T00:24:10.783Z,91.98
2018-12-22T00:26:39.147Z,90.42
2018-12-22T00:29:07.492Z,90.47
2018-12-22T00:31:35.760Z,90.95
2018-12-22T00:34:04.144Z,90.35
2018-12-22T00:36:33.953Z,91.07
2018-12-22T00:39:02.361Z,89.49
2018-12-22T00:41:30.855Z,89.50
2018-12-22T00:43:59.296Z,89.25
2018-12-22T00:46:27.500Z,88.79
2018-12-22T00:48:57.808Z,89.42
2018-12-22T00:51:26.162Z,89.63
2018-12-22T00:53:55.359Z,89.21
2018-12-22T00:56:23.615Z,88.98
2018-12-22T00:58:51.801Z,89.81
2018-12-22T01:01:20.134Z,90.58
2018-12-22T01:03:48.354Z,91.37
2018-12-22T01:06:16.591Z,91.81
2018-12-22T01:08:44.823Z,92.34
2018-12-22T01:11:13.070Z,92.14
2018-12-22T01:13:41.689Z,92.25
2018-12-22T01:16:11.942Z,92.70
2018-12-22T01:18:43.753Z,92.90
2018-12-22T01:21:13.366Z,93.46
2018-12-22T01:23:46.282Z,92.63
2018-12-22T01:26:14.753Z,92.70
2018-12-22T01:28:43.030Z,92.87
2018-12-22T01:31:11.436Z,92.27
2018-12-22T01:33:41.340Z,92.60
2018-12-22T01:36:09.628Z,92.48
2018-12-22T01:38:37.818Z,92.46
2018-12-22T01:41:06.060Z,92.14
2018-12-22T01:43:39.816Z,91.85
2018-12-22T01:46:08.201Z,91.52
2018-12-22T01:48:36.628Z,92.19
2018-12-22T01:51:05.017Z,91.88
2018-12-22T01:53:33.242Z,92.31
2018-12-22T01:56:01.385Z,92.56
2018-12-22T01:58:29.594Z,92.73
2018-12-22T02:00:57.822Z,92.50
2018-12-22T02:03:25.983Z,92.18
2018-12-22T02:05:54.290Z,93.03
2018-12-22T02:08:22.493Z,93.48
2018-12-22T02:10:50.754Z,93.39
2018-12-22T02:13:18.956Z,92.99
2018-12-22T02:15:47.133Z,93.19
2018-12-22T02:18:19.211Z,93.81
2018-12-22T02:20:47.466Z,94.11
2018-12-22T02:23:15.793Z,93.92
2018-12-22T02:25:44.088Z,93.71
2018-12-22T02:28:12.275Z,94.18
2018-12-22T02:30:40.541Z,93.80
2018-12-22T02:33:08.756Z,93.82
2018-12-22T02:35:36.896Z,94.04
2018-12-22T02:38:05.026Z,93.73
2018-12-22T02:40:33.276Z,93.61
2018-12-22T02:43:01.534Z,94.20
2018-12-22T02:45:29.708Z,94.23
2018-12-22T02:47:57.965Z,93.74
2018-12-22T02:50:26.198Z,93.83
2018-12-22T02:52:54.342Z,94.02
2018-12-22T02:55:22.677Z,94.05
2018-12-22T02:57:50.820Z,93.88
2018-12-22T03:00:18.980Z,94.38
2018-12-22T03:02:47.409Z,94.80
2018-12-22T03:05:32.004Z,94.05
2018-12-22T03:08:00.176Z,94.05
2018-12-22T03:10:28.336Z,94.43
2018-12-22T03:12:56.486Z,94.23
2018-12-22T03:15:25.720Z,94.21
2018-12-22T03:17:53.941Z,93.77
2018-12-22T03:20:22.465Z,93.80
2018-12-22T03:22:59.005Z,93.55
2018-12-22T03:25:27.321Z,94.08
2018-12-22T03:27:55.538Z,94.14
2018-12-22T03:30:54.427Z,93.96
2018-12-22T03:33:23.226Z,93.99
2018-12-22T03:35:51.432Z,94.78
2018-12-22T03:38:19.619Z,94.68
2018-12-22T03:43:40.395Z,94.18
2018-12-22T03:46:08.722Z,94.38
2018-12-22T03:48:37.193Z,94.47
2018-12-22T03:51:05.431Z,94.52
2018-12-22T03:53:33.644Z,94.65
2018-12-22T03:56:01.849Z,94.92
2018-12-22T03:58:30.107Z,94.68
2018-12-22T04:00:58.293Z,95.07
2018-12-22T04:03:26.477Z,94.63
2018-12-22T04:05:54.694Z,94.73
2018-12-22T04:08:22.869Z,94.53
2018-12-22T04:10:51.113Z,95.21
2018-12-22T04:13:20.312Z,94.92
2018-12-22T04:15:48.473Z,94.55
2018-12-22T04:18:16.738Z,94.52
2018-12-22T04:20:44.905Z,93.88
2018-12-22T04:23:13.138Z,94.14
2018-12-22T04:25:41.282Z,94.10
2018-12-22T04:28:09.473Z,94.04
2018-12-22T04:30:37.591Z,93.74
2018-12-22T04:33:05.728Z,93.52
2018-12-22T04:35:33.875Z,93.62
2018-12-22T04:38:02.077Z,93.41
2018-12-22T04:40:30.279Z,94.12
2018-12-22T04:42:58.515Z,93.52
2018-12-22T04:45:26.668Z,93.94
2018-12-22T04:47:54.978Z,93.99
2018-12-22T04:50:23.242Z,94.28
2018-12-22T04:52:51.417Z,94.01
2018-12-22T04:55:19.650Z,94.33
2018-12-22T04:57:47.777Z,94.36
2018-12-22T05:00:16.159Z,93.61
2018-12-22T05:02:44.601Z,93.99
2018-12-22T05:05:12.825Z,93.46
2018-12-22T05:07:40.977Z,94.24
2018-12-22T05:10:09.283Z,94.50
2018-12-22T05:12:37.435Z,94.35
2018-12-22T05:15:06.720Z,93.52
2018-12-22T05:17:34.966Z,93.29
2018-12-22T05:20:03.315Z,93.26
2018-12-22T05:22:31.690Z,93.29
2018-12-22T05:25:00.011Z,93.14
2018-12-22T05:27:28.265Z,93.78
2018-12-22T05:30:02.470Z,93.92
2018-12-22T05:32:30.765Z,93.28
2018-12-22T05:34:58.989Z,93.35
2018-12-22T05:37:27.208Z,93.84
2018-12-22T05:39:55.479Z,93.50
2018-12-22T05:42:23.746Z,93.86
2018-12-22T05:44:59.748Z,93.42
2018-12-22T05:47:27.900Z,93.62
2018-12-22T05:49:56.052Z,93.16
2018-12-22T05:52:24.227Z,93.90
2018-12-22T05:54:52.476Z,93.21
2018-12-22T05:57:20.928Z,93.35
2018-12-22T05:59:49.084Z,93.26
2018-12-22T06:02:17.296Z,93.26
2018-12-22T06:04:45.642Z,93.57
2018-12-22T06:07:20.344Z,93.18
2018-12-22T06:09:48.523Z,93.93
2018-12-22T06:12:16.869Z,93.50
2018-12-22T06:14:45.042Z,93.25
2018-12-22T06:17:13.210Z,93.40
2018-12-22T06:19:42.619Z,93.74
2018-12-22T06:22:11.144Z,93.36
2018-12-22T06:24:39.340Z,93.15
2018-12-22T06:27:07.530Z,93.87
2018-12-22T06:29:35.667Z,93.64
2018-12-22T06:32:04.110Z,93.68
2018-12-22T06:34:32.334Z,93.15
2018-12-22T06:37:00.665Z,93.72
2018-12-22T06:39:28.872Z,93.11
2018-12-22T06:41:57.168Z,93.55
2018-12-22T06:44:25.462Z,93.20
2018-12-22T06:46:53.614Z,93.42
2018-12-22T06:49:21.846Z,93.10
2018-12-22T06:51:50.036Z,93.17
2018-12-22T06:54:18.402Z,93.55
2018-12-22T06:56:46.585Z,93.51
2018-12-22T06:59:14.791Z,93.28
2018-12-22T07:01:42.976Z,93.87
2018-12-22T07:04:11.199Z,93.75
2018-12-22T07:09:31.895Z,93.75
2018-12-22T07:12:00.106Z,93.73
2018-12-22T07:14:28.349Z,93.53
2018-12-22T07:16:56.639Z,93.47
2018-12-22T07:19:24.859Z,93.69
2018-12-22T07:22:11.142Z,93.36
2018-12-22T07:24:39.490Z,93.45
2018-12-22T07:27:07.779Z,92.93
2018-12-22T07:29:35.945Z,93.37
2018-12-22T07:32:04.308Z,93.32
2018-12-22T07:34:32.624Z,93.88
2018-12-22T07:37:00.878Z,93.00
2018-12-22T07:39:29.199Z,93.34
2018-12-22T07:41:57.329Z,93.05
2018-12-22T07:44:25.506Z,93.57
2018-12-22T07:46:53.725Z,93.67
2018-12-22T07:49:22.052Z,93.76
2018-12-22T07:51:51.713Z,94.17
2018-12-22T07:54:20.253Z,93.87
2018-12-22T07:56:48.420Z,94.01
2018-12-22T07:59:16.715Z,93.69
2018-12-22T08:01:44.941Z,93.86
2018-12-22T08:04:13.338Z,93.99
2018-12-22T08:06:41.484Z,93.67
2018-12-22T08:09:09.801Z,93.38
2018-12-22T08:11:38.110Z,92.99
2018-12-22T08:14:06.382Z,92.99
2018-12-22T08:19:34.893Z,93.43
2018-12-22T08:22:03.631Z,93.25
2018-12-22T08:24:31.845Z,93.25
2018-12-22T08:27:00.124Z,93.00
2018-12-22T08:29:28.367Z,92.98
2018-12-22T08:31:56.624Z,92.92
2018-12-22T08:34:24.932Z,93.10
2018-12-22T08:36:54.466Z,92.91
2018-12-22T08:39:22.847Z,92.78
2018-12-22T08:41:50.998Z,92.81
2018-12-22T08:44:19.165Z,93.02
2018-12-22T08:46:47.348Z,93.01
2018-12-22T08:49:15.557Z,92.89
2018-12-22T08:52:06.831Z,92.91
2018-12-22T08:54:35.032Z,93.17
2018-12-22T08:57:03.260Z,92.47
2018-12-22T08:59:31.448Z,92.92
2018-12-22T09:01:59.717Z,92.65
2018-12-22T09:04:27.944Z,92.69
2018-12-22T09:06:56.115Z,92.35
2018-12-22T09:09:24.503Z,92.80
2018-12-22T09:11:52.681Z,92.92
2018-12-22T09:14:20.948Z,92.58
2018-12-22T09:16:53.601Z,92.38
2018-12-22T09:19:22.791Z,92.34
2018-12-22T09:21:52.547Z,92.67
2018-12-22T09:24:20.812Z,92.76
2018-12-22T09:26:49.095Z,92.63
2018-12-22T09:29:17.235Z,92.42
2018-12-22T09:31:45.409Z,92.46
2018-12-22T09:34:19.048Z,92.45
2018-12-22T09:36:59.925Z,92.36
2018-12-22T09:39:28.222Z,91.79
2018-12-22T09:42:00.317Z,92.00
2018-12-22T09:44:28.603Z,91.83
2018-12-22T09:46:57.125Z,91.46
2018-12-22T09:49:25.296Z,91.73
2018-12-22T09:51:53.603Z,91.42
2018-12-22T09:54:21.940Z,91.40
2018-12-22T09:56:50.165Z,91.17
2018-12-22T09:59:18.320Z,91.03
2018-12-22T10:01:46.648Z,90.79
2018-12-22T10:04:14.802Z,91.27
2018-12-22T10:06:43.011Z,90.91
2018-12-22T10:09:11.169Z,91.19
2018-12-22T10:11:39.436Z,90.88
2018-12-22T10:14:07.688Z,90.79
2018-12-22T10:16:36.001Z,90.72
2018-12-22T10:19:04.303Z,90.77
2018-12-22T10:21:32.624Z,90.72
2018-12-22T10:24:00.792Z,91.08
2018-12-22T10:26:28.940Z,91.11
2018-12-22T10:28:57.130Z,90.60
2018-12-22T10:31:25.336Z,90.40
2018-12-22T10:33:53.604Z,91.20
2018-12-22T10:36:21.829Z,91.06
2018-12-22T10:38:50.102Z,90.82
2018-12-22T10:41:34.004Z,90.45
2018-12-22T10:44:02.633Z,91.46
2018-12-22T10:46:30.925Z,91.69
2018-12-22T10:48:59.179Z,91.20
2018-12-22T10:51:27.338Z,90.79
2018-12-22T10:54:01.639Z,91.35
2018-12-22T10:56:30.191Z,91.23
2018-12-22T10:58:58.541Z,90.74
2018-12-22T11:01:26.993Z,90.38
2018-12-22T11:03:59.305Z,90.75
2018-12-22T11:06:27.455Z,90.45
2018-12-22T11:08:55.655Z,90.51
2018-12-22T11:11:23.856Z,90.25
2018-12-22T11:13:52.008Z,90.35
2018-12-22T11:16:21.346Z,89.78
2018-12-22T11:18:49.480Z,89.99
2018-12-22T11:21:17.757Z,90.19
2018-12-22T11:23:46.008Z,89.77
2018-12-22T11:26:14.220Z,89.40
2018-12-22T11:28:42.377Z,89.12
2018-12-22T11:31:10.569Z,89.01
2018-12-22T11:33:41.833Z,88.40
2018-12-22T11:36:10.048Z,88.61
2018-12-22T11:38:38.250Z,88.06
2018-12-22T11:41:10.827Z,88.04
2018-12-22T11:43:41.063Z,88.25
2018-12-22T11:46:13.362Z,88.67
2018-12-22T11:49:52.869Z,88.20
2018-12-22T11:52:21.091Z,89.28
2018-12-22T11:54:51.407Z,88.22
2018-12-22T11:57:19.632Z,88.37
2018-12-22T11:59:50.279Z,88.04
2018-12-22T12:02:18.477Z,88.58
2018-12-22T12:04:46.770Z,88.32
2018-12-22T12:07:15.080Z,88.16
2018-12-22T12:09:43.287Z,89.04
2018-12-22T12:12:12.622Z,88.99
2018-12-22T12:14:40.896Z,88.73
2018-12-22T12:17:21.195Z,88.91
2018-12-22T12:19:50.524Z,88.82
2018-12-22T12:22:19.257Z,88.72
2018-12-22T12:24:47.431Z,87.97
2018-12-22T12:27:15.656Z,88.58
2018-12-22T12:29:43.838Z,88.63
2018-12-22T12:32:12.146Z,88.90
2018-12-22T12:34:41.418Z,88.77
2018-12-22T12:37:10.740Z,89.25
2018-12-22T12:39:39.210Z,89.17
2018-12-22T12:42:07.480Z,89.41
2018-12-22T12:44:36.310Z,89.30
2018-12-22T12:47:04.566Z,90.14
2018-12-22T12:49:32.862Z,90.80
2018-12-22T12:52:01.010Z,90.74
2018-12-22T12:54:29.383Z,90.77
2018-12-22T12:56:59.283Z,90.58
2018-12-22T12:59:29.333Z,90.80
2018-12-22T13:02:01.304Z,90.86
2018-12-22T13:04:27.882Z,90.74
2018-12-22T13:06:56.292Z,91.10
2018-12-22T13:09:24.500Z,91.11
2018-12-22T13:11:54.102Z,91.64
2018-12-22T13:14:24.005Z,91.82
2018-12-22T13:16:52.388Z,92.03
2018-12-22T13:19:20.650Z,92.13
2018-12-22T13:21:51.384Z,92.44
2018-12-22T13:24:19.632Z,92.51
2018-12-22T13:26:47.852Z,92.44
2018-12-22T13:29:16.072Z,92.57
2018-12-22T13:31:45.082Z,92.20
2018-12-22T13:34:13.328Z,92.62
2018-12-22T13:36:41.629Z,92.59
2018-12-22T13:39:15.904Z,93.22
2018-12-22T13:41:44.139Z,93.41
2018-12-22T13:44:12.329Z,92.90
2018-12-22T13:46:40.727Z,93.13
2018-12-22T13:49:09.311Z,93.27
2018-12-22T13:51:38.870Z,93.29
2018-12-22T13:54:07.193Z,93.51
2018-12-22T13:56:35.352Z,93.67
2018-12-22T13:59:03.722Z,93.42
2018-12-22T14:01:50.183Z,93.45
2018-12-22T14:04:19.485Z,93.32
2018-12-22T14:06:48.232Z,93.61
2018-12-22T14:09:16.543Z,93.33
2018-12-22T14:11:44.780Z,93.96
2018-12-22T14:14:18.377Z,93.66
2018-12-22T14:17:25.876Z,94.06
2018-12-22T14:20:00.077Z,93.89
2018-12-22T14:22:29.350Z,94.17
2018-12-22T14:24:58.256Z,93.38
2018-12-22T14:27:26.614Z,93.53
2018-12-22T14:29:54.864Z,93.71
2018-12-22T14:32:47.611Z,93.94
2018-12-22T14:35:24.613Z,94.03
2018-12-22T14:37:52.897Z,93.77
2018-12-22T14:40:21.276Z,93.40
2018-12-22T14:42:49.504Z,93.39
2018-12-22T14:45:17.746Z,93.65
2018-12-22T14:47:45.941Z,93.74
2018-12-22T14:50:14.177Z,94.11
2018-12-22T14:55:07.559Z,93.74
2018-12-22T14:57:44.973Z,93.64
2018-12-22T15:00:13.839Z,94.23
2018-12-22T15:02:42.069Z,94.41
2018-12-22T15:05:10.325Z,94.11
2018-12-22T15:07:38.578Z,94.18
2018-12-22T15:10:07.014Z,94.13
2018-12-22T15:12:46.615Z,94.64
2018-12-22T15:15:15.000Z,94.38
2018-12-22T15:17:43.435Z,94.93
2018-12-22T15:20:19.328Z,94.10
2018-12-22T15:22:55.541Z,94.42
2018-12-22T15:25:23.713Z,94.90
2018-12-22T15:27:51.890Z,94.47
2018-12-22T15:30:20.119Z,94.49
2018-12-22T15:32:54.490Z,94.63
2018-12-22T15:35:18.708Z,95.24
2018-12-22T15:37:46.862Z,95.02
2018-12-22T15:40:16.064Z,95.24
2018-12-22T15:42:44.228Z,95.55
2018-12-22T15:45:13.946Z,95.67
2018-12-22T15:47:43.054Z,95.08
2018-12-22T15:50:13.686Z,95.47
2018-12-22T15:52:41.967Z,95.68
2018-12-22T15:55:12.375Z,95.56
2018-12-22T15:57:40.621Z,95.37
2018-12-22T16:00:10.827Z,95.48
2018-12-22T16:02:38.974Z,95.64
2018-12-22T16:05:08.682Z,95.81
2018-12-22T16:07:37.130Z,95.47
2018-12-22T16:10:08.562Z,95.30
2018-12-22T16:12:36.781Z,95.55
2018-12-22T16:15:06.897Z,94.89
2018-12-22T16:17:35.101Z,95.28
2018-12-22T16:20:03.535Z,95.43
2018-12-22T16:22:33.944Z,95.32
2018-12-22T16:25:02.187Z,95.57
2018-12-22T16:27:30.441Z,95.54
2018-12-22T16:29:58.698Z,95.57
2018-12-22T16:32:27.109Z,95.70
2018-12-22T16:34:55.491Z,95.61
2018-12-22T16:37:23.641Z,95.38
2018-12-22T16:39:53.473Z,95.33
2018-12-22T16:42:21.710Z,95.57
2018-12-22T16:44:52.065Z,95.92
2018-12-22T16:47:20.252Z,96.02
2018-12-22T16:49:48.512Z,96.02
2018-12-22T16:52:16.796Z,96.01
2018-12-22T16:54:44.936Z,95.49
2018-12-22T16:57:17.152Z,95.93
2018-12-22T16:59:45.440Z,95.64
2018-12-22T17:02:25.381Z,95.83
2018-12-22T17:07:49.373Z,96.13
2018-12-22T17:10:20.302Z,95.78
2018-12-22T17:12:50.596Z,95.74
2018-12-22T17:15:22.247Z,95.95
2018-12-22T17:17:49.104Z,95.28
2018-12-22T17:20:17.487Z,95.43
2018-12-22T17:24:24.403Z,95.59
2018-12-22T17:26:52.562Z,95.80
2018-12-22T17:29:20.824Z,95.54
2018-12-22T17:31:48.995Z,95.49
2018-12-22T17:34:17.264Z,95.28
2018-12-22T17:36:45.495Z,94.90
2018-12-22T17:39:14.883Z,95.29
2018-12-22T17:41:43.982Z,95.15
2018-12-22T17:44:12.234Z,95.03
2018-12-22T17:46:40.396Z,95.03
2018-12-22T17:49:08.761Z,95.11
2018-12-22T17:51:37.040Z,95.47
2018-12-22T17:54:05.330Z,95.46
2018-12-22T17:56:33.798Z,95.27
2018-12-22T17:59:01.987Z,95.42
2018-12-22T18:01:30.247Z,94.86
2018-12-22T18:03:59.642Z,95.31
2018-12-22T18:06:29.499Z,95.45
2018-12-22T18:08:58.034Z,94.90
2018-12-22T18:11:26.215Z,95.31
2018-12-22T18:13:54.402Z,95.17
2018-12-22T18:16:22.640Z,95.31
2018-12-22T18:18:50.852Z,95.70
2018-12-22T18:21:19.116Z,95.14
2018-12-22T18:23:47.547Z,95.06
2018-12-22T18:26:15.845Z,95.29
2018-12-22T18:28:44.177Z,95.14
2018-12-22T18:31:12.349Z,94.54
2018-12-22T18:33:40.512Z,94.79
2018-12-22T18:36:08.917Z,94.59
2018-12-22T18:38:37.280Z,94.60
2018-12-22T18:41:07.029Z,94.75
2018-12-22T18:43:36.358Z,94.54
2018-12-22T18:46:04.620Z,94.59
2018-12-22T18:48:32.837Z,94.46
2018-12-22T18:51:01.100Z,94.73
2018-12-22T18:53:29.289Z,94.88
2018-12-22T18:55:57.449Z,94.54
2018-12-22T19:01:16.167Z,94.73
2018-12-22T19:04:04.991Z,94.87
2018-12-22T19:09:27.942Z,94.55
2018-12-22T19:11:56.089Z,94.53
2018-12-22T19:14:24.333Z,94.58
2018-12-22T19:16:52.556Z,94.59
2018-12-22T19:19:20.735Z,94.58
2018-12-22T19:21:48.952Z,94.54
2018-12-22T19:24:17.365Z,94.51
2018-12-22T19:26:45.551Z,94.87
2018-12-22T19:29:13.726Z,94.53
2018-12-22T19:31:42.248Z,95.02
2018-12-22T19:34:10.589Z,95.02
2018-12-22T19:36:38.820Z,94.71
2018-12-22T19:39:07.588Z,94.82
2018-12-22T19:41:35.800Z,94.68
2018-12-22T19:44:04.096Z,94.55
2018-12-22T19:49:25.102Z,94.67
2018-12-22T19:51:53.442Z,94.90
2018-12-22T19:54:21.700Z,94.80
2018-12-22T19:56:49.862Z,95.01
2018-12-22T19:59:18.182Z,95.08
2018-12-22T20:01:46.391Z,94.81
2018-12-22T20:04:14.797Z,94.54
2018-12-22T20:06:43.118Z,95.07
2018-12-22T20:09:11.342Z,94.63
2018-12-22T20:11:39.703Z,94.63
2018-12-22T20:14:07.851Z,94.54
2018-12-22T20:16:36.092Z,94.74
2018-12-22T20:19:04.437Z,95.12
2018-12-22T20:21:32.609Z,94.92
2018-12-22T20:24:00.785Z,94.86
2018-12-22T20:26:29.012Z,94.87
2018-12-22T20:28:57.267Z,95.06
2018-12-22T20:31:25.436Z,95.13
2018-12-22T20:33:53.610Z,95.24
2018-12-22T20:36:21.747Z,95.13
2018-12-22T20:38:49.896Z,94.86
2018-12-22T20:41:18.063Z,95.18
2018-12-22T20:43:46.268Z,95.11
2018-12-22T20:46:14.414Z,94.96
2018-12-22T20:48:42.806Z,95.07
2018-12-22T20:51:10.944Z,94.95
2018-12-22T20:53:39.379Z,94.91
2018-12-22T20:56:07.804Z,94.88
2018-12-22T20:58:38.358Z,95.44
2018-12-22T21:01:06.742Z,95.24
2018-12-22T21:03:39.788Z,95.07
2018-12-22T21:06:15.071Z,94.97
2018-12-22T21:08:47.586Z,95.20
2018-12-22T21:11:33.078Z,94.73
2018-12-22T21:14:01.333Z,94.44
2018-12-22T21:16:29.630Z,94.79
2018-12-22T21:18:57.946Z,94.60
2018-12-22T21:21:26.313Z,94.10
2018-12-22T21:23:54.539Z,94.90
2018-12-22T21:26:22.796Z,94.69
2018-12-22T21:28:51.062Z,94.25
2018-12-22T21:31:19.240Z,94.70
2018-12-22T21:33:49.618Z,94.83
2018-12-22T21:36:18.031Z,94.22
2018-12-22T21:38:46.209Z,94.34
2018-12-22T21:41:14.563Z,94.56
2018-12-22T21:43:42.726Z,94.95
2018-12-22T21:46:10.965Z,95.03
2018-12-22T21:48:39.189Z,94.57
2018-12-22T21:51:07.469Z,94.60
2018-12-22T21:53:35.676Z,94.82
2018-12-22T21:56:03.913Z,94.84
2018-12-22T21:58:32.692Z,94.75
2018-12-22T22:01:00.911Z,94.85
2018-12-22T22:03:29.084Z,94.84
2018-12-22T22:05:57.278Z,94.84
2018-12-22T22:08:27.466Z,94.20
2018-12-22T22:10:56.866Z,94.50
2018-12-22T22:13:25.144Z,94.21
2018-12-22T22:15:55.972Z,94.42
2018-12-22T22:18:24.131Z,94.68
2018-12-22T22:20:52.316Z,94.62
2018-12-22T22:23:21.695Z,94.75
2018-12-22T22:27:01.102Z,94.44
2018-12-22T22:29:29.225Z,94.68
2018-12-22T22:31:58.071Z,94.26
2018-12-22T22:34:29.399Z,94.62
2018-12-22T22:36:58.613Z,94.58
2018-12-22T22:39:26.841Z,94.17
2018-12-22T22:41:55.016Z,94.28
2018-12-22T22:44:23.774Z,94.35
2018-12-22T22:46:52.038Z,94.34
2018-12-22T22:49:20.200Z,94.20
2018-12-22T22:51:48.418Z,94.31
2018-12-22T22:54:18.041Z,94.28
2018-12-22T22:56:46.308Z,93.91
2018-12-22T22:59:17.776Z,94.38
2018-12-22T23:01:46.333Z,94.42
2018-12-22T23:04:14.555Z,94.39
2018-12-22T23:06:48.096Z,94.71
2018-12-22T23:09:16.367Z,94.70
2018-12-22T23:11:44.776Z,94.53
2018-12-22T23:14:13.058Z,94.73
2018-12-22T23:16:41.353Z,94.64
2018-12-22T23:19:09.625Z,94.20
2018-12-22T23:21:41.820Z,94.74
2018-12-22T23:24:12.333Z,94.72
2018-12-22T23:26:40.622Z,94.60
2018-12-22T23:29:08.781Z,94.80
2018-12-22T23:31:37.029Z,94.87
2018-12-22T23:34:05.339Z,94.89
2018-12-22T23:36:33.617Z,95.09
2018-12-22T23:39:01.834Z,94.98
2018-12-22T23:41:30.088Z,95.36
2018-12-22T23:43:58.306Z,95.14
2018-12-22T23:46:26.492Z,95.21
2018-12-22T23:48:54.655Z,95.47
2018-12-22T23:51:22.942Z,95.27
2018-12-22T23:53:51.092Z,95.45
2018-12-22T23:56:19.256Z,95.59
2018-12-22T23:58:47.490Z,95.52
